Thursday, February 22, 2018, 4:45 PM CST
Back to Local

KDPA, Chicago/west Ch Dupage

Location: West Chicago, IL, United States Lat: 41.9
Local Time: 4:45 PM CST (22:45 GMT) Lon: -88.25
Time Zone: US/Central Elev: 757 ft

Show me the last for .
Show Decoded

2018-02-22 16:21 METAR KDPA 222221Z 06010KT 8SM BKN024 OVC035 03/M01 A3039 RMK AO2 T00331011 =
2018-02-22 15:52 METAR KDPA 222152Z 07010G22KT 8SM FEW025 OVC037 03/M01 A3037 RMK AO2 SLP292
                 T00331006 =
2018-02-22 15:39 METAR KDPA 222139Z 08016G23KT 7SM FEW025 OVC037 04/M01 A3037 RMK AO2 T00391006 =
2018-02-22 14:52 METAR KDPA 222052Z 09013KT 7SM OVC026 03/M01 A3041 RMK AO2 SLP306 T00331006
                 56023 =
2018-02-22 14:36 METAR KDPA 222036Z 07013KT 7SM BKN027 OVC038 04/M01 A3041 RMK AO2 T00391006 =
2018-02-22 13:52 METAR KDPA 221952Z 06014KT 10SM OVC042 04/M01 A3042 RMK AO2 SLP309 T00441006 =
2018-02-22 12:52 METAR KDPA 221852Z 08013G20KT 10SM OVC055 05/00 A3046 RMK AO2 SLP322 T00500000 =
2018-02-22 11:52 METAR KDPA 221752Z 07014KT 8SM FEW022 04/00 A3048 RMK AO2 SLP330 T00440000 10044
                 21011 58020 =
2018-02-22 10:52 METAR KDPA 221652Z 05014KT 7SM FEW020 BKN075 BKN095 03/M01 A3051 RMK AO2 SLP342
                 T00331006 =
2018-02-22 09:52 METAR KDPA 221552Z 06011KT 10SM SCT095 02/M01 A3052 RMK AO2 SLP345 T00221011 =
2018-02-22 08:52 METAR KDPA 221452Z 04013KT 10SM OVC100 01/M02 A3054 RMK AO2 SLP352 T00111017
                 53008 =
2018-02-22 07:52 METAR KDPA 221352Z 04010KT 10SM OVC100 00/M02 A3053 RMK AO2 SLP349 T00001022 =
2018-02-22 06:52 METAR KDPA 221252Z 05009KT 10SM BKN075 OVC110 M01/M02 A3053 RMK AO2 SLP347
                 T10061022 $ =
2018-02-22 05:52 METAR KDPA 221152Z 05011KT 10SM BKN120 M01/M03 A3052 RMK AO2 SLP344 T10111028
                 11011 21028 50001 $ =
2018-02-22 04:52 METAR KDPA 221052Z AUTO 04011KT 10SM CLR M01/M03 A3052 RMK AO2 SLP346 T10111033
                 $ =
2018-02-22 03:52 METAR KDPA 220952Z AUTO 04009KT 10SM CLR M02/M04 A3051 RMK AO2 SLP343 T10171044
                 $ =
2018-02-22 02:52 METAR KDPA 220852Z 05011KT 10SM CLR M02/M05 A3052 RMK AO2 SLP344 T10171050 58014
                 $ =
2018-02-22 01:52 METAR KDPA 220752Z 04008KT 10SM CLR M02/M05 A3056 RMK AO2 SLP358 T10221050 =
2018-02-22 00:52 METAR KDPA 220652Z 04011KT 10SM CLR M02/M06 A3055 RMK AO2 SLP355 T10221056 =
2018-02-21 23:52 METAR KDPA 220552Z 04010KT 10SM CLR M03/M06 A3056 RMK AO2 SLP358 T10281061 11017
                 21033 410061033 58021 =
2018-02-21 22:52 METAR KDPA 220452Z 04009KT 9SM CLR M03/M06 A3059 RMK AO2 SLP369 T10281061 =
2018-02-21 21:52 METAR KDPA 220352Z 04007KT 9SM CLR M03/M06 A3062 RMK AO2 SLP378 T10281061 =
2018-02-21 20:52 METAR KDPA 220252Z 04008KT 9SM CLR M03/M06 A3062 RMK AO2 SLP380 T10281061 50008
                 =
2018-02-21 19:52 METAR KDPA 220152Z 05006KT 10SM CLR M03/M06 A3063 RMK AO2 SLP382 T10281061 =
2018-02-21 18:52 METAR KDPA 220052Z 04008KT 10SM CLR M02/M06 A3061 RMK AO2 SLP378 T10221056 =
2018-02-21 17:52 METAR KDPA 212352Z 03008KT 10SM CLR M02/M06 A3059 RMK AO2 SLP370 T10171061 11006
                 21017 53010 =
2018-02-21 16:52 METAR KDPA 212252Z 02008KT 10SM CLR M01/M06 A3058 RMK AO2 SLP366 T10111056 =

Support USWX by starting your Amazon purchase here.